Time;durP1;ratioP1;P1;durP2;ratioP2;P2;SDS_P1;SDS_P2;PMS_P1;PMS_P2;Temp;Humidity;BMP_temperature;BMP_pressure;BME280_temperature;BME280_humidity;BME280_pressure;Samples;Min_cycle;Max_cycle;Signal;HPM_P1;HPM_P2
2022/11/28 00:01:55;;;;;;;21.63;12.18;;;2.60;74.10;;;;;;5104370;27;46359;-68
2022/11/28 00:04:21;;;;;;;26.50;13.30;;;2.60;74.40;;;;;;5106952;27;46368;-66
2022/11/28 00:06:48;;;;;;;25.90;12.10;;;2.60;73.10;;;;;;5105611;27;47451;-66
2022/11/28 00:09:15;;;;;;;23.02;12.90;;;2.60;74.20;;;;;;5105182;27;46506;-67
2022/11/28 00:11:43;;;;;;;25.98;12.50;;;2.60;74.20;;;;;;5108144;27;46373;-69
2022/11/28 00:14:09;;;;;;;23.23;13.00;;;2.70;74.30;;;;;;5104048;27;46368;-67
2022/11/28 00:16:35;;;;;;;24.40;14.40;;;2.70;72.90;;;;;;5106535;27;46491;-66
2022/11/28 00:19:02;;;;;;;21.40;12.45;;;2.70;73.80;;;;;;5106051;27;46442;-65
2022/11/28 00:21:30;;;;;;;24.40;13.85;;;2.70;73.50;;;;;;5107162;27;46690;-67
2022/11/28 00:23:55;;;;;;;19.58;12.63;;;2.70;73.40;;;;;;5106157;27;46632;-67
2022/11/28 00:26:25;;;;;;;23.07;13.10;;;2.70;72.50;;;;;;5105412;27;47641;-68
2022/11/28 00:28:51;;;;;;;19.35;11.75;;;2.60;73.60;;;;;;5108380;27;46590;-69
2022/11/28 00:31:20;;;;;;;22.83;13.43;;;2.70;73.60;;;;;;5109383;27;46029;-67
2022/11/28 00:33:46;;;;;;;22.65;13.55;;;2.70;73.50;;;;;;5110882;27;46654;-67
2022/11/28 00:36:12;;;;;;;20.77;12.38;;;2.70;73.40;;;;;;5107680;27;46622;-67
2022/11/28 00:38:38;;;;;;;22.10;12.45;;;2.70;73.70;;;;;;5107323;27;46556;-68
2022/11/28 00:41:07;;;;;;;22.67;13.43;;;2.70;73.60;;;;;;5103109;27;46030;-67
2022/11/28 00:43:33;;;;;;;22.67;13.05;;;2.70;73.50;;;;;;5106577;27;46516;-67
2022/11/28 00:45:59;;;;;;;23.02;13.05;;;2.70;72.50;;;;;;5105893;27;46344;-68
2022/11/28 00:48:25;;;;;;;24.50;14.37;;;2.70;73.60;;;;;;5107453;27;46632;-68
2022/11/28 00:50:51;;;;;;;28.33;14.27;;;2.80;73.30;;;;;;5106175;27;46380;-68
2022/11/28 00:53:17;;;;;;;26.80;14.63;;;2.80;72.90;;;;;;5108171;27;46571;-69
2022/11/28 00:55:42;;;;;;;24.33;13.10;;;2.80;73.00;;;;;;5106609;27;47257;-69
2022/11/28 00:58:08;;;;;;;27.30;12.83;;;2.70;73.00;;;;;;5110004;27;46467;-67
2022/11/28 01:00:34;;;;;;;24.03;13.20;;;2.70;73.20;;;;;;5106255;27;46457;-67
2022/11/28 01:03:00;;;;;;;25.48;14.27;;;2.80;74.40;;;;;;5108258;27;46074;-66
2022/11/28 01:05:25;;;;;;;26.67;14.03;;;2.80;71.80;;;;;;5109582;27;46617;-68
2022/11/28 01:07:51;;;;;;;25.33;13.50;;;2.80;72.90;;;;;;5109266;27;46296;-67
2022/11/28 01:10:17;;;;;;;24.80;13.93;;;2.90;72.60;;;;;;5105443;27;46375;-67
2022/11/28 01:12:43;;;;;;;21.48;11.80;;;2.90;72.00;;;;;;5106998;27;46649;-67
2022/11/28 01:15:11;;;;;;;22.40;12.77;;;3.00;71.90;;;;;;5105594;27;47308;-69
2022/11/28 01:17:37;;;;;;;25.48;13.15;;;3.10;71.00;;;;;;5101781;27;45866;-67
2022/11/28 01:20:06;;;;;;;25.38;13.15;;;3.10;72.00;;;;;;5105183;27;46374;-67
2022/11/28 01:22:31;;;;;;;22.15;12.73;;;3.10;72.00;;;;;;5106306;27;46795;-66
2022/11/28 01:24:57;;;;;;;23.37;12.87;;;3.10;72.00;;;;;;5107367;27;46441;-67
2022/11/28 01:27:23;;;;;;;23.97;13.07;;;3.00;70.90;;;;;;5106100;27;45877;-69
2022/11/28 01:29:49;;;;;;;24.67;13.87;;;3.10;72.00;;;;;;5104585;27;47319;-66
2022/11/28 01:32:15;;;;;;;26.53;14.33;;;3.10;72.10;;;;;;5108158;27;46547;-69
2022/11/28 01:34:41;;;;;;;24.27;13.65;;;3.10;72.00;;;;;;5103308;27;46617;-65
2022/11/28 01:37:07;;;;;;;24.67;14.20;;;3.10;71.00;;;;;;5105594;27;47113;-69
2022/11/28 01:39:32;;;;;;;23.00;13.47;;;3.10;72.00;;;;;;5106397;27;46431;-67
2022/11/28 01:41:58;;;;;;;24.87;13.30;;;3.20;72.10;;;;;;5107977;27;46502;-67
2022/11/28 01:44:23;;;;;;;29.17;15.00;;;3.20;72.20;;;;;;5104073;27;46531;-67
2022/11/28 01:46:49;;;;;;;24.90;13.80;;;3.20;71.10;;;;;;5104531;27;46502;-69
2022/11/28 01:49:36;;;;;;;25.53;14.17;;;3.10;72.00;;;;;;5109294;27;46449;-69
2022/11/28 01:52:10;;;;;;;23.52;14.35;;;3.10;72.00;;;;;;5103046;27;46459;-67
2022/11/28 01:54:37;;;;;;;25.10;14.07;;;2.90;72.10;;;;;;5106401;27;47418;-66
2022/11/28 01:57:07;;;;;;;23.75;13.65;;;3.00;72.50;;;;;;5104344;27;46021;-69
2022/11/28 01:59:44;;;;;;;22.80;13.70;;;3.00;72.20;;;;;;5103706;27;46795;-67
2022/11/28 02:02:18;;;;;;;24.92;14.32;;;3.10;72.00;;;;;;5122405;27;46664;-69
2022/11/28 02:04:45;;;;;;;25.05;14.15;;;3.10;72.00;;;;;;5104744;27;47340;-68
2022/11/28 02:07:11;;;;;;;33.28;14.07;;;3.10;71.00;;;;;;5100667;27;46481;-69
2022/11/28 02:09:38;;;;;;;23.30;13.93;;;3.00;72.00;;;;;;5105952;27;46488;-69
2022/11/28 02:12:48;;;;;;;23.80;13.93;;;2.90;72.30;;;;;;5105531;27;46402;-67
2022/11/28 02:15:21;;;;;;;23.85;13.32;;;3.00;72.20;;;;;;5002401;28;46587;-67
2022/11/28 02:18:08;;;;;;;24.77;13.93;;;3.10;72.00;;;;;;5002436;28;46530;-67
2022/11/28 02:20:50;;;;;;;23.98;12.90;;;3.10;72.00;;;;;;5074359;27;45848;-67
2022/11/28 02:23:24;;;;;;;23.63;14.30;;;3.10;72.10;;;;;;5140392;27;46424;-67
2022/11/28 02:25:55;;;;;;;24.08;13.57;;;3.20;72.10;;;;;;5105565;27;46553;-69
2022/11/28 02:28:45;;;;;;;24.27;13.63;;;3.10;72.00;;;;;;5108000;27;46380;-67
2022/11/28 02:31:48;;;;;;;26.38;14.43;;;3.20;72.10;;;;;;5103409;27;46394;-68
2022/11/28 02:34:30;;;;;;;26.92;14.65;;;3.20;72.10;;;;;;5105726;27;46368;-69
2022/11/28 02:37:07;;;;;;;28.95;16.17;;;3.20;71.10;;;;;;5104773;27;46535;-69
2022/11/28 02:40:05;;;;;;;27.27;13.98;;;3.20;72.20;;;;;;5104229;27;46297;-66
2022/11/28 02:42:46;;;;;;;27.15;14.77;;;3.10;72.00;;;;;;5104096;27;46404;-69
2022/11/28 02:45:32;;;;;;;28.02;15.00;;;3.10;72.00;;;;;;5106604;27;46693;-68
2022/11/28 02:48:04;;;;;;;27.80;15.50;;;3.00;71.90;;;;;;5105229;27;46400;-68
2022/11/28 02:50:54;;;;;;;26.80;14.43;;;3.10;72.00;;;;;;5102322;27;46511;-67
2022/11/28 02:53:23;;;;;;;29.05;13.95;;;3.00;71.90;;;;;;5105616;27;45868;-68
2022/11/28 02:55:50;;;;;;;25.10;14.68;;;2.90;72.00;;;;;;5104788;27;46365;-69
2022/11/28 02:58:17;;;;;;;22.70;13.18;;;2.90;72.90;;;;;;5103543;27;46449;-67
2022/11/28 03:00:45;;;;;;;25.92;14.63;;;2.80;73.40;;;;;;5103915;27;46490;-69
2022/11/28 03:03:20;;;;;;;28.33;14.95;;;2.70;74.10;;;;;;5106435;27;46432;-67
2022/11/28 03:05:55;;;;;;;28.98;14.98;;;2.50;74.50;;;;;;5105977;27;46426;-67
2022/11/28 03:08:35;;;;;;;29.00;15.80;;;2.60;74.30;;;;;;5103064;27;46435;-67
2022/11/28 03:11:09;;;;;;;31.17;15.60;;;2.80;73.90;;;;;;5105313;27;46718;-66
2022/11/28 03:14:03;;;;;;;29.10;15.65;;;2.90;73.20;;;;;;5102036;27;46493;-67
2022/11/28 03:16:46;;;;;;;28.60;15.52;;;2.80;73.40;;;;;;5087315;27;46592;-67
2022/11/28 03:19:25;;;;;;;21.65;12.25;;;2.80;73.70;;;;;;5101285;27;47772;-70
2022/11/28 03:22:06;;;;;;;21.20;12.85;;;2.80;72.60;;;;;;5101124;27;46204;-69
2022/11/28 03:24:49;;;;;;;20.83;12.75;;;2.70;73.80;;;;;;5101910;27;46554;-70
2022/11/28 03:27:33;;;;;;;23.70;12.40;;;2.60;73.70;;;;;;5101848;27;46392;-67
2022/11/28 03:30:22;;;;;;;23.75;12.60;;;2.60;74.90;;;;;;5101583;27;46662;-68
2022/11/28 03:32:52;;;;;;;21.95;13.52;;;2.50;75.00;;;;;;5101032;27;46540;-70
2022/11/28 03:35:22;;;;;;;21.73;13.20;;;2.60;74.70;;;;;;5101211;27;46797;-67
2022/11/28 03:37:56;;;;;;;24.25;13.65;;;2.60;73.30;;;;;;5101794;27;46559;-67
2022/11/28 03:40:26;;;;;;;21.80;12.50;;;2.80;72.80;;;;;;5105750;27;46653;-67
2022/11/28 03:43:08;;;;;;;23.67;12.55;;;2.80;73.70;;;;;;5107846;27;46520;-69
2022/11/28 03:45:39;;;;;;;24.52;13.82;;;2.80;72.60;;;;;;5106940;27;46380;-68
2022/11/28 03:48:37;;;;;;;25.67;14.40;;;2.80;73.50;;;;;;5109338;27;46282;-69
2022/11/28 03:51:14;;;;;;;23.08;12.45;;;2.80;73.80;;;;;;5092719;27;46583;-69
2022/11/28 03:53:55;;;;;;;16.58;8.13;;;2.80;74.10;;;;;;5094619;27;47447;-67
2022/11/28 03:56:25;;;;;;;20.60;12.90;;;2.70;74.40;;;;;;5105878;27;46498;-67
2022/11/28 03:59:02;;;;;;;26.48;12.50;;;2.70;75.20;;;;;;5106603;27;46546;-67
2022/11/28 04:01:52;;;;;;;19.67;13.02;;;2.60;75.20;;;;;;5103074;27;46602;-67
2022/11/28 04:04:52;;;;;;;18.27;11.32;;;2.60;75.50;;;;;;5107623;27;46528;-69
2022/11/28 04:07:22;;;;;;;23.13;11.48;;;2.60;74.70;;;;;;5109140;27;46519;-68
2022/11/28 04:10:08;;;;;;;22.88;12.27;;;2.70;75.50;;;;;;5109897;27;46442;-67
2022/11/28 04:13:10;;;;;;;22.80;12.55;;;2.70;75.20;;;;;;5106746;27;46826;-69
2022/11/28 04:15:35;;;;;;;22.25;12.52;;;2.70;73.90;;;;;;5095772;27;46430;-66
2022/11/28 04:18:16;;;;;;;22.80;14.23;;;2.70;74.70;;;;;;5106180;27;45929;-68
2022/11/28 04:20:54;;;;;;;27.37;14.73;;;2.80;74.60;;;;;;5108793;27;46697;-69
2022/11/28 04:23:21;;;;;;;22.63;13.13;;;2.90;74.00;;;;;;5110187;27;46775;-68
2022/11/28 04:25:55;;;;;;;23.45;13.88;;;2.90;73.60;;;;;;5106745;27;46418;-68
2022/11/28 04:28:26;;;;;;;27.77;14.85;;;2.90;73.50;;;;;;5106112;27;46371;-69
2022/11/28 04:30:55;;;;;;;28.40;15.07;;;2.90;73.40;;;;;;5107021;27;45925;-66
2022/11/28 04:33:22;;;;;;;28.58;15.20;;;2.90;73.50;;;;;;5107302;27;46494;-67
2022/11/28 04:35:51;;;;;;;30.90;16.65;;;2.90;73.40;;;;;;5107220;27;46399;-68
2022/11/28 04:38:19;;;;;;;29.30;15.65;;;2.90;73.50;;;;;;5110023;27;46496;-68
2022/11/28 04:41:00;;;;;;;28.63;15.85;;;2.90;73.60;;;;;;5107486;27;46385;-68
2022/11/28 04:43:32;;;;;;;32.30;17.00;;;2.80;73.50;;;;;;5106196;27;46644;-67
2022/11/28 04:46:11;;;;;;;33.28;16.52;;;2.80;73.80;;;;;;5108883;27;46372;-69
2022/11/28 04:48:37;;;;;;;30.05;15.57;;;2.90;73.40;;;;;;5105121;27;46288;-67
2022/11/28 04:51:25;;;;;;;31.17;16.20;;;3.00;72.90;;;;;;5107347;27;46459;-67
2022/11/28 04:54:03;;;;;;;33.20;16.25;;;3.00;72.20;;;;;;5107402;27;46496;-65
2022/11/28 04:56:43;;;;;;;30.77;16.40;;;3.10;72.10;;;;;;5109447;27;46581;-69
2022/11/28 04:59:11;;;;;;;29.90;15.45;;;3.10;72.00;;;;;;5125451;27;46481;-66
2022/11/28 05:01:39;;;;;;;26.92;14.98;;;3.10;72.00;;;;;;5106659;27;46402;-66
2022/11/28 05:04:05;;;;;;;30.70;16.42;;;3.00;72.40;;;;;;5107137;27;47335;-69
2022/11/28 05:06:34;;;;;;;26.38;15.80;;;3.00;72.00;;;;;;5106076;27;46391;-67
2022/11/28 05:08:59;;;;;;;28.95;15.30;;;3.00;73.10;;;;;;5109617;27;46430;-69
2022/11/28 05:11:25;;;;;;;26.77;15.77;;;3.00;73.00;;;;;;5104292;27;46389;-67
2022/11/28 05:13:51;;;;;;;31.88;15.13;;;3.00;72.90;;;;;;5106745;27;46320;-66
2022/11/28 05:16:17;;;;;;;25.27;14.25;;;2.90;72.20;;;;;;5103599;27;46399;-66
2022/11/28 05:18:43;;;;;;;28.63;14.50;;;2.90;73.40;;;;;;5108063;27;46681;-66
2022/11/28 05:21:09;;;;;;;24.33;13.70;;;2.90;73.40;;;;;;5107552;27;46480;-68
2022/11/28 05:23:36;;;;;;;26.05;14.57;;;2.90;73.40;;;;;;5106355;27;47620;-69
2022/11/28 05:26:20;;;;;;;27.17;14.00;;;2.90;73.50;;;;;;5108972;27;45888;-69
2022/11/28 05:28:48;;;;;;;27.10;15.27;;;2.90;73.70;;;;;;5123857;27;46405;-67
2022/11/28 05:31:16;;;;;;;25.15;15.02;;;2.90;73.90;;;;;;5105933;27;46481;-65
2022/11/28 05:33:41;;;;;;;28.42;15.10;;;3.00;73.70;;;;;;5107385;27;46508;-67
2022/11/28 05:36:09;;;;;;;24.43;13.90;;;3.00;73.50;;;;;;5104432;27;45857;-68
2022/11/28 05:38:35;;;;;;;26.08;15.00;;;2.90;73.50;;;;;;5106709;27;46404;-68
2022/11/28 05:41:01;;;;;;;29.30;15.53;;;3.00;73.20;;;;;;5108794;27;46420;-68
2022/11/28 05:43:28;;;;;;;27.27;17.50;;;3.00;73.00;;;;;;5104348;27;46693;-67
2022/11/28 05:45:54;;;;;;;85.28;41.70;;;3.00;73.00;;;;;;5105769;27;46535;-67
2022/11/28 05:48:19;;;;;;;30.55;17.33;;;3.10;73.70;;;;;;5104548;27;46407;-68
2022/11/28 05:50:45;;;;;;;39.73;20.60;;;3.20;73.60;;;;;;5101632;27;46387;-67
2022/11/28 05:53:11;;;;;;;24.77;13.80;;;3.20;73.10;;;;;;5107853;27;46593;-67
2022/11/28 05:55:38;;;;;;;22.40;13.00;;;3.10;71.80;;;;;;5104395;27;46502;-66
2022/11/28 05:58:04;;;;;;;26.63;15.90;;;3.20;72.90;;;;;;5106428;27;46372;-68
2022/11/28 06:00:30;;;;;;;27.20;15.37;;;3.20;72.80;;;;;;5110438;27;46320;-67
2022/11/28 06:02:56;;;;;;;29.57;14.90;;;3.30;71.20;;;;;;5107413;27;49188;-67
2022/11/28 06:05:21;;;;;;;24.90;14.30;;;3.40;72.30;;;;;;5104855;27;46720;-66
2022/11/28 06:07:47;;;;;;;29.30;15.60;;;3.40;71.20;;;;;;5106058;27;45948;-68
2022/11/28 06:10:12;;;;;;;30.03;16.80;;;3.30;71.10;;;;;;5105530;27;46088;-67
2022/11/28 06:12:38;;;;;;;24.30;13.97;;;3.30;72.30;;;;;;5103033;27;46917;-69
2022/11/28 06:15:04;;;;;;;26.43;15.20;;;3.30;72.30;;;;;;5108534;27;46499;-69
2022/11/28 06:17:31;;;;;;;26.77;14.40;;;3.20;71.90;;;;;;5105800;27;46478;-66
2022/11/28 06:19:56;;;;;;;19.75;12.70;;;3.20;73.50;;;;;;5106437;27;46389;-66
2022/11/28 06:22:22;;;;;;;22.57;13.97;;;3.00;74.50;;;;;;5098189;27;47725;-69
2022/11/28 06:24:48;;;;;;;22.87;13.13;;;2.90;75.00;;;;;;5106238;27;46474;-67
2022/11/28 06:27:13;;;;;;;21.23;11.80;;;3.00;74.20;;;;;;5106724;27;46463;-67
2022/11/28 06:29:39;;;;;;;24.30;15.00;;;3.00;75.20;;;;;;5104094;27;46189;-67
2022/11/28 06:32:05;;;;;;;21.63;12.40;;;3.10;74.80;;;;;;5107930;27;46391;-70
2022/11/28 06:34:31;;;;;;;21.35;13.13;;;3.10;75.00;;;;;;5106830;27;46345;-67
2022/11/28 06:36:57;;;;;;;20.87;12.97;;;3.20;73.50;;;;;;5106100;27;46358;-65
2022/11/28 06:39:22;;;;;;;23.37;13.73;;;3.30;74.40;;;;;;5103875;27;46537;-66
2022/11/28 06:41:48;;;;;;;22.73;12.40;;;3.30;74.00;;;;;;5104404;27;46847;-68
2022/11/28 06:44:15;;;;;;;26.97;14.00;;;3.40;73.60;;;;;;5103084;27;46353;-68
2022/11/28 06:46:41;;;;;;;22.00;13.35;;;3.40;74.40;;;;;;5103566;27;46318;-66
2022/11/28 06:49:08;;;;;;;22.95;13.80;;;3.50;71.70;;;;;;5104316;27;46714;-68
2022/11/28 06:51:35;;;;;;;27.00;17.83;;;3.50;72.50;;;;;;5103714;27;48776;-68
2022/11/28 06:54:01;;;;;;;21.70;13.90;;;3.60;72.50;;;;;;5104353;27;46440;-68
2022/11/28 06:56:27;;;;;;;21.10;12.67;;;3.60;73.40;;;;;;5102821;27;46552;-68
2022/11/28 06:58:55;;;;;;;20.83;12.93;;;3.60;73.00;;;;;;5104415;27;46459;-70
2022/11/28 07:01:22;;;;;;;17.42;10.98;;;3.70;72.50;;;;;;5102410;27;46795;-69
2022/11/28 07:03:48;;;;;;;16.35;10.80;;;3.60;72.60;;;;;;5105378;27;46690;-67
2022/11/28 07:06:16;;;;;;;20.00;12.07;;;3.80;71.60;;;;;;5106613;27;45924;-68
2022/11/28 07:08:42;;;;;;;21.30;11.03;;;3.80;72.70;;;;;;5101289;27;46940;-70
2022/11/28 07:11:17;;;;;;;19.77;12.40;;;3.80;72.60;;;;;;5100566;27;47560;-67
2022/11/28 07:13:46;;;;;;;19.25;11.93;;;4.10;72.90;;;;;;5102332;27;45932;-66
2022/11/28 07:16:18;;;;;;;18.73;10.70;;;3.80;72.60;;;;;;5099324;27;45936;-67
2022/11/28 07:18:44;;;;;;;20.00;11.45;;;3.90;72.30;;;;;;5099528;27;46860;-65
2022/11/28 07:21:13;;;;;;;21.83;13.10;;;4.00;71.90;;;;;;5111691;27;47851;-66
2022/11/28 07:23:38;;;;;;;21.00;12.50;;;4.00;71.60;;;;;;5104448;27;46567;-67
2022/11/28 07:26:04;;;;;;;25.90;13.93;;;4.00;72.00;;;;;;5101179;27;46460;-65
2022/11/28 07:28:31;;;;;;;23.77;13.97;;;3.90;72.70;;;;;;5100935;27;45909;-65
2022/11/28 07:31:21;;;;;;;23.90;13.77;;;3.90;72.70;;;;;;5105564;27;46541;-64
2022/11/28 07:33:49;;;;;;;27.60;14.48;;;4.00;71.90;;;;;;5099995;27;46412;-65
2022/11/28 07:36:26;;;;;;;20.92;12.82;;;3.90;72.30;;;;;;5106957;27;46516;-66
2022/11/28 07:38:57;;;;;;;21.97;12.47;;;3.90;72.40;;;;;;5107973;27;47008;-67
2022/11/28 07:41:24;;;;;;;19.45;11.70;;;4.00;71.80;;;;;;5105488;27;46568;-67
2022/11/28 07:44:09;;;;;;;21.95;11.90;;;4.10;71.20;;;;;;5104206;27;46469;-66
2022/11/28 07:46:34;;;;;;;18.17;11.13;;;4.20;70.00;;;;;;5101110;27;46454;-67
2022/11/28 07:49:00;;;;;;;15.73;10.50;;;4.10;71.20;;;;;;5101316;27;46392;-65
2022/11/28 07:51:29;;;;;;;17.70;10.67;;;4.10;71.50;;;;;;5105540;27;47562;-64
2022/11/28 07:53:55;;;;;;;22.23;12.43;;;4.10;71.40;;;;;;5097260;27;46362;-65
2022/11/28 07:56:23;;;;;;;19.73;12.27;;;4.10;71.90;;;;;;5106909;27;46545;-65
2022/11/28 07:58:49;;;;;;;22.20;11.97;;;4.20;71.70;;;;;;5098011;27;46503;-66
2022/11/28 08:01:18;;;;;;;20.00;11.60;;;4.30;71.40;;;;;;5098821;27;47467;-64
2022/11/28 08:03:45;;;;;;;19.10;12.48;;;4.40;70.80;;;;;;5102397;27;46538;-66
2022/11/28 08:06:11;;;;;;;14.18;10.27;;;4.40;70.60;;;;;;5102983;27;46477;-67
2022/11/28 08:08:37;;;;;;;17.67;10.75;;;4.50;70.50;;;;;;5106685;27;46362;-65
2022/11/28 08:11:05;;;;;;;19.73;11.00;;;4.60;70.10;;;;;;5099077;27;47819;-65
2022/11/28 08:13:31;;;;;;;20.08;12.07;;;4.70;70.00;;;;;;5102561;27;46485;-67
2022/11/28 08:15:57;;;;;;;22.77;12.53;;;4.70;69.80;;;;;;5105358;27;46493;-66
2022/11/28 08:18:23;;;;;;;23.43;14.80;;;4.80;69.80;;;;;;5104227;27;45903;-65
2022/11/28 08:20:48;;;;;;;20.53;12.30;;;4.80;69.70;;;;;;5098741;27;46673;-66
2022/11/28 08:23:15;;;;;;;20.77;12.53;;;4.90;69.40;;;;;;5099894;27;46424;-66
2022/11/28 08:25:40;;;;;;;19.50;10.90;;;5.00;68.30;;;;;;5103473;27;46905;-66
2022/11/28 08:28:06;;;;;;;21.80;12.63;;;5.00;69.40;;;;;;5107470;27;45943;-66
2022/11/28 08:30:32;;;;;;;25.77;13.57;;;5.00;69.00;;;;;;5107842;27;46503;-65
2022/11/28 08:32:58;;;;;;;22.60;13.40;;;5.00;69.00;;;;;;5101742;27;46116;-65
2022/11/28 08:35:23;;;;;;;22.60;13.48;;;5.00;69.00;;;;;;5106935;27;46595;-63
2022/11/28 08:37:49;;;;;;;17.63;10.87;;;5.10;68.00;;;;;;5106599;27;46455;-64
2022/11/28 08:40:15;;;;;;;32.23;17.23;;;5.20;69.00;;;;;;5107757;27;46493;-64
2022/11/28 08:42:40;;;;;;;159.63;57.50;;;5.20;68.90;;;;;;5107181;27;46447;-64
2022/11/28 08:45:06;;;;;;;37.83;16.53;;;5.20;69.30;;;;;;5109570;27;46436;-65
2022/11/28 08:47:32;;;;;;;46.80;22.50;;;5.20;68.20;;;;;;5106276;27;46588;-64
2022/11/28 08:49:58;;;;;;;21.93;12.50;;;5.20;69.30;;;;;;5106833;27;46574;-66
2022/11/28 08:52:24;;;;;;;15.50;10.30;;;5.30;69.00;;;;;;5102966;27;46646;-64
2022/11/28 08:54:50;;;;;;;18.67;10.68;;;5.40;68.90;;;;;;5104285;27;46217;-63
2022/11/28 08:57:15;;;;;;;15.23;10.07;;;5.50;67.60;;;;;;5100394;27;46336;-66
2022/11/28 08:59:41;;;;;;;17.60;11.00;;;5.40;68.60;;;;;;5108045;27;46461;-65
2022/11/28 09:02:10;;;;;;;17.63;11.13;;;5.50;68.50;;;;;;5105836;27;46315;-64
2022/11/28 09:04:36;;;;;;;15.73;10.40;;;5.50;68.20;;;;;;5106249;27;46478;-65
2022/11/28 09:07:02;;;;;;;14.20;9.07;;;5.60;67.00;;;;;;5105260;27;46452;-64
2022/11/28 09:09:28;;;;;;;18.13;10.27;;;5.60;67.90;;;;;;5100076;27;46526;-64
2022/11/28 09:11:53;;;;;;;16.50;10.27;;;5.70;67.90;;;;;;5105557;27;46485;-64
2022/11/28 09:14:19;;;;;;;13.17;9.60;;;5.70;67.80;;;;;;5107640;27;46448;-63
2022/11/28 09:16:45;;;;;;;19.45;12.45;;;5.80;66.50;;;;;;5107210;27;46422;-64
2022/11/28 09:19:10;;;;;;;17.63;11.30;;;5.80;67.60;;;;;;5106078;27;46376;-63
2022/11/28 09:21:36;;;;;;;16.23;10.03;;;5.90;68.10;;;;;;5106743;27;45793;-63
2022/11/28 09:24:02;;;;;;;14.10;9.53;;;6.00;67.90;;;;;;5104110;27;46706;-65
2022/11/28 09:26:28;;;;;;;16.20;10.33;;;6.10;66.50;;;;;;5107207;27;46170;-64
2022/11/28 09:28:55;;;;;;;17.30;10.93;;;6.10;67.50;;;;;;5098759;27;46489;-62
2022/11/28 09:31:21;;;;;;;18.30;11.15;;;6.20;67.40;;;;;;5097818;27;46658;-62
2022/11/28 09:33:48;;;;;;;21.67;13.07;;;6.30;67.40;;;;;;5104793;27;46471;-65
2022/11/28 09:36:17;;;;;;;19.20;11.10;;;6.40;66.40;;;;;;5105598;27;46545;-65
2022/11/28 09:38:43;;;;;;;17.77;11.00;;;6.30;67.50;;;;;;5099464;27;47179;-66
2022/11/28 09:41:26;;;;;;;20.20;11.60;;;6.40;67.60;;;;;;5102123;27;46719;-67
2022/11/28 09:43:57;;;;;;;16.60;10.30;;;6.50;67.20;;;;;;5103619;27;47250;-66
2022/11/28 09:46:28;;;;;;;17.20;10.20;;;6.60;67.10;;;;;;5105151;27;46518;-67
2022/11/28 09:48:59;;;;;;;15.67;9.53;;;6.70;67.00;;;;;;5103362;27;46575;-65
2022/11/28 09:51:34;;;;;;;13.80;8.83;;;6.80;66.80;;;;;;5101142;27;46752;-65
2022/11/28 09:54:10;;;;;;;14.40;8.87;;;6.80;66.80;;;;;;5102881;27;46450;-65
2022/11/28 09:56:36;;;;;;;18.10;9.38;;;6.90;66.60;;;;;;5104068;27;47737;-65
2022/11/28 09:59:03;;;;;;;13.17;8.87;;;7.00;66.40;;;;;;5102698;27;46373;-65
2022/11/28 10:01:36;;;;;;;11.50;8.17;;;7.10;66.40;;;;;;5099886;27;46644;-68
2022/11/28 10:04:08;;;;;;;17.10;11.00;;;7.10;66.20;;;;;;5101635;27;46353;-66
2022/11/28 10:06:44;;;;;;;14.43;10.17;;;7.10;65.80;;;;;;5103515;27;46699;-65
2022/11/28 10:09:13;;;;;;;16.37;11.33;;;7.20;65.70;;;;;;5099432;27;46428;-66
2022/11/28 10:11:59;;;;;;;27.50;13.27;;;7.20;65.60;;;;;;5104550;27;46456;-66
2022/11/28 10:14:46;;;;;;;21.73;12.90;;;7.20;65.60;;;;;;5104940;27;46450;-64
2022/11/28 10:17:51;;;;;;;18.97;11.90;;;7.40;64.20;;;;;;5106800;27;45974;-66
2022/11/28 10:20:21;;;;;;;20.73;11.93;;;7.40;64.90;;;;;;5102640;27;47583;-66
2022/11/28 10:22:59;;;;;;;19.27;11.27;;;7.50;64.60;;;;;;5107147;27;45864;-66
2022/11/28 10:25:32;;;;;;;19.30;11.20;;;7.60;64.40;;;;;;5104227;27;46254;-66
2022/11/28 10:27:58;;;;;;;16.63;10.23;;;7.60;64.60;;;;;;5107227;27;46848;-65
2022/11/28 10:30:32;;;;;;;16.10;10.47;;;7.70;64.60;;;;;;5102950;27;46413;-67
2022/11/28 10:33:10;;;;;;;16.50;10.77;;;7.80;64.40;;;;;;5103796;27;46426;-64
2022/11/28 10:35:45;;;;;;;24.27;10.57;;;7.90;62.50;;;;;;5104449;27;46911;-66
2022/11/28 10:38:15;;;;;;;20.23;10.50;;;7.90;63.60;;;;;;5108147;27;46672;-65
2022/11/28 10:40:48;;;;;;;15.47;9.93;;;7.90;64.20;;;;;;5098370;27;46597;-66
2022/11/28 10:43:23;;;;;;;16.03;8.93;;;8.00;63.80;;;;;;5103916;27;46371;-67
2022/11/28 10:45:51;;;;;;;13.80;8.50;;;7.90;64.00;;;;;;5103084;27;46518;-66
2022/11/28 10:48:41;;;;;;;14.47;8.47;;;8.00;63.70;;;;;;5103760;27;46669;-66
2022/11/28 10:51:21;;;;;;;13.20;7.83;;;8.00;63.70;;;;;;5100423;27;46395;-68
2022/11/28 10:54:17;;;;;;;11.77;7.63;;;7.90;63.60;;;;;;5100851;27;46568;-66
2022/11/28 10:56:50;;;;;;;11.57;7.53;;;7.70;62.30;;;;;;5104560;27;46409;-67
2022/11/28 10:59:46;;;;;;;12.07;7.20;;;7.70;63.50;;;;;;5106704;27;46714;-65
2022/11/28 11:02:18;;;;;;;11.17;7.37;;;7.60;64.10;;;;;;5101110;27;47471;-67
2022/11/28 11:04:44;;;;;;;13.60;9.10;;;7.70;64.00;;;;;;5104865;27;46478;-65
2022/11/28 11:07:28;;;;;;;16.20;8.80;;;8.00;62.60;;;;;;5103096;27;46401;-66
2022/11/28 11:09:56;;;;;;;13.73;8.10;;;8.10;63.80;;;;;;5104923;27;46588;-68
2022/11/28 11:12:27;;;;;;;12.83;8.10;;;8.10;63.80;;;;;;5101663;27;48224;-69
2022/11/28 11:14:53;;;;;;;16.33;8.20;;;8.30;63.50;;;;;;5100399;27;46528;-66
2022/11/28 11:17:36;;;;;;;19.13;10.00;;;8.30;61.80;;;;;;5107642;27;46495;-65
2022/11/28 11:20:24;;;;;;;13.03;7.70;;;8.40;62.90;;;;;;5104754;27;46710;-66
2022/11/28 11:22:58;;;;;;;13.00;8.03;;;8.50;62.70;;;;;;5103742;27;47201;-68
2022/11/28 11:25:30;;;;;;;17.53;9.73;;;8.60;62.50;;;;;;5105523;27;46457;-65
2022/11/28 11:28:02;;;;;;;13.00;7.17;;;8.70;62.10;;;;;;5107115;27;46418;-66
2022/11/28 11:30:37;;;;;;;13.63;7.47;;;8.80;62.00;;;;;;5106931;27;46133;-66
2022/11/28 11:33:05;;;;;;;13.90;7.60;;;8.80;62.00;;;;;;5109688;27;46500;-66
2022/11/28 11:35:41;;;;;;;9.57;6.57;;;8.60;61.40;;;;;;5100484;27;46415;-69
2022/11/28 11:38:17;;;;;;;11.77;6.73;;;8.60;62.50;;;;;;5105208;27;46907;-66
2022/11/28 11:40:43;;;;;;;13.37;7.90;;;8.60;62.60;;;;;;5106071;27;47129;-65
2022/11/28 11:43:23;;;;;;;16.33;7.70;;;8.50;63.20;;;;;;5104386;27;46478;-67
2022/11/28 11:46:04;;;;;;;14.90;11.00;;;8.40;64.00;;;;;;5101427;27;46393;-64
2022/11/28 11:48:42;;;;;;;10.80;6.73;;;8.50;64.10;;;;;;5101135;27;46542;-66
2022/11/28 11:51:31;;;;;;;10.07;7.00;;;8.60;63.30;;;;;;5102726;27;46368;-64
2022/11/28 11:54:05;;;;;;;17.60;9.40;;;8.70;63.20;;;;;;5090758;27;49311;-64
2022/11/28 11:56:36;;;;;;;11.30;7.30;;;8.60;63.60;;;;;;5104649;27;46435;-65
2022/11/28 11:59:09;;;;;;;11.03;6.77;;;8.40;64.10;;;;;;5100914;27;46964;-68
2022/11/28 12:01:37;;;;;;;10.97;7.57;;;8.40;64.00;;;;;;5103239;27;46435;-65
2022/11/28 12:04:05;;;;;;;11.70;7.60;;;8.40;64.00;;;;;;5109020;27;46743;-66
2022/11/28 12:06:45;;;;;;;10.73;6.70;;;8.40;64.00;;;;;;5101914;27;46461;-66
2022/11/28 12:09:16;;;;;;;9.80;6.37;;;8.40;64.00;;;;;;5107289;27;46528;-65
2022/11/28 12:12:12;;;;;;;8.67;6.60;;;8.40;64.00;;;;;;5106425;27;46442;-64
2022/11/28 12:14:38;;;;;;;11.87;7.23;;;8.30;64.00;;;;;;5102553;27;46466;-64
2022/11/28 12:17:03;;;;;;;11.40;7.00;;;8.40;64.00;;;;;;5105403;27;46452;-67
2022/11/28 12:19:39;;;;;;;11.27;6.93;;;8.50;63.90;;;;;;5108060;27;46184;-64
2022/11/28 12:22:16;;;;;;;11.67;6.90;;;8.60;63.40;;;;;;5105628;27;46460;-63
2022/11/28 12:25:32;;;;;;;11.50;6.73;;;8.60;62.90;;;;;;5106128;27;46541;-66
2022/11/28 12:28:20;;;;;;;10.90;7.27;;;8.60;62.80;;;;;;5041148;28;46502;-66
2022/11/28 12:30:59;;;;;;;10.70;6.83;;;8.60;62.50;;;;;;5095291;27;47049;-66
2022/11/28 12:33:45;;;;;;;12.32;8.40;;;8.70;62.60;;;;;;5104232;27;46698;-65
2022/11/28 12:36:17;;;;;;;15.47;9.70;;;8.60;61.50;;;;;;5106348;27;47590;-65
2022/11/28 12:38:59;;;;;;;11.63;7.70;;;8.70;62.40;;;;;;5104155;27;46478;-65
2022/11/28 12:42:12;;;;;;;18.40;7.70;;;8.60;62.50;;;;;;5105157;27;46683;-70
2022/11/28 12:44:51;;;;;;;14.60;7.67;;;8.60;62.50;;;;;;5043548;28;46748;-65
2022/11/28 12:47:45;;;;;;;13.80;7.23;;;8.60;63.00;;;;;;5098590;27;47191;-66
2022/11/28 12:50:30;;;;;;;12.90;8.20;;;8.70;62.80;;;;;;5109572;27;46474;-66
2022/11/28 12:53:20;;;;;;;13.13;7.80;;;8.70;62.60;;;;;;5105174;27;46517;-66
2022/11/28 12:56:30;;;;;;;11.67;7.77;;;8.80;61.40;;;;;;5105449;27;46429;-66
2022/11/28 12:58:56;;;;;;;14.70;7.40;;;8.80;62.30;;;;;;5057096;27;47734;-64
2022/11/28 13:01:58;;;;;;;11.60;6.93;;;8.80;61.90;;;;;;5106228;27;46718;-66
2022/11/28 13:04:42;;;;;;;10.30;7.00;;;8.80;61.70;;;;;;5103333;27;46806;-64